createdAt,value
2018-08-31T00:01:38.380Z,3.30
2018-08-31T00:04:20.393Z,3.50
2018-08-31T00:05:20.432Z,3.40
2018-08-31T00:06:20.280Z,3.50
2018-08-31T00:07:20.227Z,3.60
2018-08-31T00:08:20.057Z,3.20
2018-08-31T00:09:20.121Z,3.00
2018-08-31T00:10:19.901Z,3.10
2018-08-31T00:11:19.941Z,3.10
2018-08-31T00:12:19.736Z,3.30
2018-08-31T00:13:19.754Z,3.10
2018-08-31T00:14:19.566Z,3.40
2018-08-31T00:15:19.609Z,3.00
2018-08-31T00:16:19.411Z,2.90
2018-08-31T00:17:19.378Z,3.40
2018-08-31T00:18:19.259Z,3.30
2018-08-31T00:19:19.275Z,3.20
2018-08-31T00:20:19.112Z,3.50
2018-08-31T00:21:19.087Z,3.10
2018-08-31T00:22:18.930Z,3.70
2018-08-31T00:23:18.902Z,3.30
2018-08-31T00:24:18.776Z,3.20
2018-08-31T00:25:18.748Z,3.50
2018-08-31T00:26:18.724Z,3.50
2018-08-31T00:27:18.617Z,3.40
2018-08-31T00:28:18.457Z,3.50
2018-08-31T00:29:18.433Z,3.30
2018-08-31T00:30:18.323Z,3.10
2018-08-31T00:31:18.347Z,3.30
2018-08-31T00:32:18.129Z,3.20
2018-08-31T00:33:18.144Z,3.10
2018-08-31T00:34:17.967Z,3.30
2018-08-31T00:35:17.953Z,3.00
2018-08-31T00:36:17.844Z,3.40
2018-08-31T00:37:17.767Z,2.90
2018-08-31T00:38:17.649Z,3.10
2018-08-31T00:39:17.684Z,3.20
2018-08-31T00:40:17.492Z,3.40
2018-08-31T00:41:17.521Z,3.10
2018-08-31T00:42:17.450Z,3.30
2018-08-31T00:43:17.286Z,3.10
2018-08-31T00:44:17.178Z,3.40
2018-08-31T00:45:17.290Z,3.30
2018-08-31T00:46:17.035Z,3.40
2018-08-31T00:47:17.015Z,2.90
2018-08-31T00:48:16.843Z,3.30
2018-08-31T00:49:16.813Z,3.10
2018-08-31T00:50:16.683Z,3.40
2018-08-31T00:51:16.659Z,3.10
2018-08-31T00:52:16.534Z,3.20
2018-08-31T00:53:16.534Z,3.20
2018-08-31T00:54:16.359Z,3.50
2018-08-31T00:55:16.349Z,3.00
2018-08-31T00:56:16.230Z,3.20
2018-08-31T00:57:16.145Z,3.20
2018-08-31T00:58:16.050Z,3.10
2018-08-31T00:59:16.074Z,3.10
2018-08-31T01:00:15.882Z,3.80
2018-08-31T01:01:15.901Z,3.20
2018-08-31T01:02:15.719Z,2.90
2018-08-31T01:04:57.904Z,3.00
2018-08-31T01:07:39.907Z,3.50
2018-08-31T01:08:39.875Z,3.40
2018-08-31T01:09:39.731Z,3.10
2018-08-31T01:10:39.685Z,3.30
2018-08-31T01:11:39.619Z,3.00
2018-08-31T01:12:39.656Z,3.20
2018-08-31T01:13:39.417Z,2.90
2018-08-31T01:14:39.514Z,3.50
2018-08-31T01:15:39.243Z,3.10
2018-08-31T01:16:39.175Z,3.10
2018-08-31T01:17:39.103Z,3.10
2018-08-31T01:20:21.391Z,3.00
2018-08-31T01:21:21.426Z,2.90
2018-08-31T01:22:21.253Z,2.80
2018-08-31T01:23:21.268Z,3.10
2018-08-31T01:24:21.083Z,3.00
2018-08-31T01:25:21.049Z,3.10
2018-08-31T01:26:20.903Z,2.90
2018-08-31T01:50:03.033Z,3.00
2018-08-31T01:51:02.815Z,3.30
2018-08-31T01:52:02.845Z,3.10
2018-08-31T01:53:02.681Z,3.20
2018-08-31T01:54:02.593Z,3.30
2018-08-31T01:55:02.502Z,3.30
2018-08-31T01:57:41.486Z,4.10
2018-08-31T01:57:41.983Z,3.20
2018-08-31T01:58:41.980Z,3.00
2018-08-31T01:59:41.814Z,3.30
2018-08-31T02:00:41.875Z,3.30
2018-08-31T02:01:41.666Z,3.40
2018-08-31T02:02:41.855Z,3.40
2018-08-31T02:03:41.527Z,3.30
2018-08-31T02:06:23.399Z,3.10
2018-08-31T02:07:23.372Z,3.40
2018-08-31T02:08:23.263Z,3.60
2018-08-31T02:09:23.213Z,3.30
2018-08-31T02:10:23.079Z,3.20
2018-08-31T02:11:23.092Z,3.60
2018-08-31T02:12:22.923Z,3.80
2018-08-31T02:13:22.905Z,3.20
2018-08-31T02:14:22.776Z,3.20
2018-08-31T02:15:22.712Z,3.20
2018-08-31T02:16:22.608Z,3.20
2018-08-31T02:17:22.623Z,3.40
2018-08-31T02:18:22.457Z,3.50
2018-08-31T02:19:22.462Z,3.40
2018-08-31T02:20:22.270Z,3.50
2018-08-31T02:21:22.235Z,3.40
2018-08-31T02:22:22.117Z,3.10
2018-08-31T02:23:22.172Z,3.80
2018-08-31T02:24:21.983Z,3.40
2018-08-31T02:25:21.999Z,3.50
2018-08-31T02:26:21.800Z,3.40
2018-08-31T02:27:21.768Z,3.80
2018-08-31T02:28:21.631Z,3.90
2018-08-31T02:29:21.673Z,3.20
2018-08-31T02:30:21.490Z,3.50
2018-08-31T02:31:21.488Z,3.30
2018-08-31T02:32:21.342Z,3.30
2018-08-31T02:35:03.447Z,3.90
2018-08-31T02:36:03.389Z,3.90
2018-08-31T02:37:03.244Z,3.40
2018-08-31T02:38:03.303Z,3.30
2018-08-31T02:39:03.183Z,3.60
2018-08-31T02:40:03.106Z,3.80
2018-08-31T02:41:02.943Z,3.30
2018-08-31T02:43:44.929Z,3.70
2018-08-31T02:46:26.937Z,3.30
2018-08-31T02:47:26.922Z,3.40
2018-08-31T02:48:26.765Z,3.40
2018-08-31T02:49:26.722Z,3.70
2018-08-31T02:50:26.609Z,4.00
2018-08-31T02:51:27.598Z,4.00
2018-08-31T02:52:26.425Z,4.00
2018-08-31T02:53:26.440Z,4.10
2018-08-31T02:54:26.276Z,3.70
2018-08-31T02:57:08.427Z,4.10
2018-08-31T02:58:08.448Z,3.80
2018-08-31T03:03:25.312Z,4.20
2018-08-31T03:04:25.165Z,4.10
2018-08-31T03:05:25.203Z,4.50
2018-08-31T03:06:25.019Z,3.90
2018-08-31T03:07:25.007Z,3.70
2018-08-31T03:08:24.838Z,3.70
2018-08-31T03:09:24.820Z,3.10
2018-08-31T03:10:24.686Z,3.60
2018-08-31T03:11:24.776Z,3.90
2018-08-31T03:12:24.536Z,3.70
2018-08-31T03:13:24.520Z,3.80
2018-08-31T03:15:24.341Z,3.40
2018-08-31T03:16:24.181Z,3.80
2018-08-31T03:17:24.315Z,3.50
2018-08-31T03:18:24.034Z,3.80
2018-08-31T03:19:24.065Z,3.50
2018-08-31T03:20:23.869Z,3.80
2018-08-31T03:21:23.886Z,3.90
2018-08-31T03:22:23.723Z,3.90
2018-08-31T03:23:23.679Z,3.60
2018-08-31T03:24:23.562Z,4.00
2018-08-31T03:25:23.581Z,4.10
2018-08-31T03:26:23.376Z,3.80
2018-08-31T03:27:23.624Z,4.20
2018-08-31T03:28:23.242Z,3.80
2018-08-31T03:29:23.157Z,3.70
2018-08-31T03:30:23.081Z,3.40
2018-08-31T03:31:23.104Z,3.80
2018-08-31T03:32:22.899Z,3.90
2018-08-31T03:33:22.978Z,3.80
2018-08-31T03:34:22.765Z,3.90
2018-08-31T03:35:22.725Z,3.30
2018-08-31T03:36:22.585Z,3.90
2018-08-31T03:37:22.563Z,3.80
2018-08-31T03:38:22.434Z,3.70
2018-08-31T03:39:22.441Z,3.70
2018-08-31T03:40:22.265Z,3.50
2018-08-31T03:43:04.440Z,3.60
2018-08-31T03:44:04.450Z,3.50
2018-08-31T03:45:04.271Z,3.80
2018-08-31T03:48:51.438Z,3.70
2018-08-31T03:49:47.369Z,4.00
2018-08-31T03:50:51.186Z,3.40
2018-08-31T03:51:47.201Z,3.30
2018-08-31T03:52:51.307Z,3.60
2018-08-31T03:53:47.064Z,4.00
2018-08-31T03:54:49.180Z,3.40
2018-08-31T03:55:46.863Z,3.70
2018-08-31T03:56:46.820Z,4.00
2018-08-31T03:57:46.697Z,3.90
2018-08-31T03:58:49.252Z,3.40
2018-08-31T03:59:46.593Z,3.60
2018-08-31T04:00:46.541Z,3.70
2018-08-31T04:01:46.380Z,3.20
2018-08-31T04:02:46.438Z,3.70
2018-08-31T04:03:46.235Z,3.90
2018-08-31T04:04:46.264Z,3.80
2018-08-31T04:05:46.148Z,3.30
2018-08-31T04:06:46.113Z,3.90
2018-08-31T04:07:45.902Z,3.80
2018-08-31T04:08:45.922Z,4.10
2018-08-31T04:09:45.734Z,4.30
2018-08-31T04:10:45.670Z,4.10
2018-08-31T04:11:45.585Z,3.50
2018-08-31T04:12:45.498Z,4.00
2018-08-31T04:13:45.419Z,3.60
2018-08-31T04:14:45.450Z,4.00
2018-08-31T04:15:45.255Z,3.80
2018-08-31T04:16:45.225Z,3.80
2018-08-31T04:17:45.089Z,3.70
2018-08-31T04:20:26.960Z,3.70
2018-08-31T04:21:26.919Z,3.60
2018-08-31T04:22:26.770Z,3.50
2018-08-31T04:23:26.732Z,3.90
2018-08-31T04:24:26.613Z,3.60
2018-08-31T04:25:26.680Z,3.60
2018-08-31T04:26:26.532Z,3.40
2018-08-31T04:27:53.536Z,3.70
2018-08-31T04:28:26.295Z,3.60
2018-08-31T04:29:26.466Z,15.40
2018-08-31T04:30:26.149Z,19.80
2018-08-31T04:31:26.098Z,28.60
2018-08-31T04:32:25.983Z,28.80
2018-08-31T04:33:25.989Z,42.80
2018-08-31T04:34:25.812Z,11.90
2018-08-31T04:35:26.845Z,7.20
2018-08-31T04:36:25.678Z,6.20
2018-08-31T04:37:25.597Z,3.60
2018-08-31T04:38:25.486Z,3.70
2018-08-31T04:39:25.507Z,3.50
2018-08-31T04:40:25.366Z,3.70
2018-08-31T04:41:25.266Z,3.30
2018-08-31T04:42:25.172Z,3.60
2018-08-31T04:43:25.087Z,3.50
2018-08-31T04:44:25.029Z,2.80
2018-08-31T04:45:24.926Z,3.20
2018-08-31T04:46:24.974Z,3.40
2018-08-31T04:49:06.937Z,3.90
2018-08-31T04:50:06.870Z,3.60
2018-08-31T04:51:06.801Z,3.90
2018-08-31T04:52:06.703Z,3.60
2018-08-31T04:53:06.630Z,3.80
2018-08-31T04:54:06.546Z,3.70
2018-08-31T04:55:06.464Z,3.90
2018-08-31T04:56:07.446Z,3.90
2018-08-31T04:57:06.317Z,3.80
2018-08-31T04:58:06.226Z,4.50
2018-08-31T04:59:06.132Z,4.10
2018-08-31T05:01:48.481Z,4.40
2018-08-31T05:02:48.362Z,4.60
2018-08-31T05:03:48.277Z,4.40
2018-08-31T05:04:48.204Z,4.70
2018-08-31T05:05:48.123Z,4.80
2018-08-31T05:06:48.070Z,4.80
2018-08-31T05:07:47.967Z,4.40
2018-08-31T05:08:47.919Z,4.40
2018-08-31T05:09:47.796Z,4.40
2018-08-31T05:10:47.813Z,3.90
2018-08-31T05:11:47.761Z,3.70
2018-08-31T05:14:30.043Z,4.30
2018-08-31T05:15:29.869Z,4.20
2018-08-31T05:16:29.782Z,3.80
2018-08-31T05:17:30.725Z,4.00
2018-08-31T05:18:29.634Z,4.40
2018-08-31T05:19:29.547Z,4.30
2018-08-31T05:20:29.462Z,4.10
2018-08-31T05:23:11.472Z,4.10
2018-08-31T05:24:11.377Z,3.90
2018-08-31T05:25:11.280Z,4.20
2018-08-31T05:26:11.217Z,4.20
2018-08-31T05:27:11.159Z,4.00
2018-08-31T05:28:11.082Z,4.30
2018-08-31T05:29:10.971Z,4.30
2018-08-31T05:30:12.891Z,4.20
2018-08-31T05:31:10.815Z,4.30
2018-08-31T05:32:10.726Z,4.60
2018-08-31T05:33:10.652Z,4.50
2018-08-31T05:34:11.575Z,4.00
2018-08-31T05:35:10.505Z,4.30
2018-08-31T05:36:10.403Z,4.20
2018-08-31T05:37:10.333Z,4.20
2018-08-31T05:38:10.273Z,4.20
2018-08-31T05:51:33.180Z,4.20
2018-08-31T05:52:33.103Z,4.40
2018-08-31T05:53:33.027Z,4.80
2018-08-31T05:54:32.950Z,4.80
2018-08-31T05:55:32.835Z,4.70
2018-08-31T05:56:32.760Z,4.90
2018-08-31T05:57:32.681Z,4.70
2018-08-31T06:00:14.983Z,4.00
2018-08-31T06:01:14.890Z,4.60
2018-08-31T06:02:14.852Z,4.70
2018-08-31T06:03:14.728Z,4.10
2018-08-31T06:04:14.654Z,4.40
2018-08-31T06:05:14.573Z,4.00
2018-08-31T06:06:14.480Z,4.10
2018-08-31T06:08:56.777Z,4.20
2018-08-31T06:11:38.492Z,4.20
2018-08-31T06:12:38.442Z,4.30
2018-08-31T06:13:38.298Z,4.10
2018-08-31T06:14:39.236Z,3.90
2018-08-31T06:15:38.166Z,3.70
2018-08-31T06:16:38.060Z,3.90
2018-08-31T06:17:37.987Z,3.90
2018-08-31T06:18:37.904Z,3.70
2018-08-31T06:19:37.936Z,4.10
2018-08-31T06:20:37.740Z,3.50
2018-08-31T06:21:37.651Z,4.00
2018-08-31T06:22:37.736Z,3.90
2018-08-31T06:23:37.494Z,3.70
2018-08-31T06:24:37.436Z,3.80
2018-08-31T06:25:37.351Z,3.50
2018-08-31T06:26:37.263Z,3.50
2018-08-31T06:27:37.178Z,3.70
2018-08-31T06:28:37.133Z,3.40
2018-08-31T06:29:37.018Z,3.80
2018-08-31T06:32:18.998Z,3.30
2018-08-31T06:33:18.894Z,3.70
2018-08-31T06:34:18.811Z,3.90
2018-08-31T06:35:18.785Z,3.40
2018-08-31T06:36:18.648Z,3.40
2018-08-31T06:39:00.482Z,3.00
2018-08-31T06:40:01.417Z,3.10
2018-08-31T06:41:00.300Z,3.30
2018-08-31T06:42:01.249Z,3.10
2018-08-31T06:43:00.174Z,3.00
2018-08-31T06:44:01.081Z,3.10
2018-08-31T06:44:59.992Z,3.40
2018-08-31T06:46:00.932Z,2.70
2018-08-31T06:46:59.853Z,3.00
2018-08-31T06:47:59.759Z,2.80
2018-08-31T06:48:59.669Z,3.30
2018-08-31T06:49:59.591Z,2.70
2018-08-31T06:50:59.702Z,3.10
2018-08-31T06:51:59.698Z,2.90
2018-08-31T06:52:59.519Z,2.90
2018-08-31T06:53:59.630Z,2.80
2018-08-31T06:54:59.196Z,3.10
2018-08-31T06:55:59.143Z,3.00
2018-08-31T06:56:59.046Z,3.20
2018-08-31T06:57:58.975Z,2.90
2018-08-31T06:58:58.891Z,2.90
2018-08-31T06:59:58.807Z,3.00
2018-08-31T07:00:58.730Z,3.10
2018-08-31T07:01:58.667Z,2.30
2018-08-31T07:02:58.576Z,3.10
2018-08-31T07:03:58.524Z,2.70
2018-08-31T07:04:58.404Z,3.10
2018-08-31T07:05:58.328Z,2.80
2018-08-31T07:06:58.280Z,2.80
2018-08-31T07:07:58.173Z,2.80
2018-08-31T07:08:58.100Z,3.20
2018-08-31T07:09:58.580Z,2.90
2018-08-31T07:10:57.936Z,2.90
2018-08-31T07:11:57.860Z,2.90
2018-08-31T07:12:57.955Z,3.30
2018-08-31T07:15:39.972Z,2.80
2018-08-31T07:16:39.945Z,3.00
2018-08-31T07:17:39.831Z,2.70
2018-08-31T07:18:39.754Z,2.70
2018-08-31T07:19:39.686Z,3.00
2018-08-31T07:20:39.585Z,2.50
2018-08-31T07:21:39.507Z,2.80
2018-08-31T07:22:39.560Z,3.20
2018-08-31T07:23:39.341Z,2.90
2018-08-31T07:24:39.279Z,2.90
2018-08-31T07:25:39.187Z,2.90
2018-08-31T07:28:21.515Z,3.00
2018-08-31T07:29:21.425Z,2.70
2018-08-31T07:30:21.342Z,2.70
2018-08-31T07:31:21.248Z,2.60
2018-08-31T07:32:21.183Z,2.70
2018-08-31T07:33:21.101Z,2.70
2018-08-31T07:34:21.026Z,2.60
2018-08-31T07:37:02.991Z,3.40
2018-08-31T07:38:02.932Z,2.70
2018-08-31T07:39:02.887Z,2.70
2018-08-31T07:40:02.967Z,2.60
2018-08-31T07:41:02.785Z,2.60
2018-08-31T07:43:28.017Z,2.50
2018-08-31T07:46:09.992Z,2.70
2018-08-31T07:47:09.914Z,2.70
2018-08-31T07:48:09.867Z,2.30
2018-08-31T07:49:09.759Z,2.70
2018-08-31T07:50:09.670Z,2.60
2018-08-31T07:52:51.679Z,2.30
2018-08-31T07:53:51.502Z,2.80
2018-08-31T07:54:51.339Z,2.60
2018-08-31T07:55:51.263Z,2.50
2018-08-31T07:56:51.180Z,2.50
2018-08-31T07:59:33.260Z,2.60
2018-08-31T08:00:32.917Z,2.80
2018-08-31T08:01:32.855Z,2.70
2018-08-31T08:04:15.048Z,2.70
2018-08-31T08:05:14.916Z,2.80
2018-08-31T08:06:14.834Z,2.70
2018-08-31T08:07:14.771Z,2.80
2018-08-31T08:08:14.680Z,2.70
2018-08-31T08:09:14.637Z,2.60
2018-08-31T08:10:14.584Z,2.30
2018-08-31T08:11:14.445Z,2.70
2018-08-31T08:12:14.382Z,2.70
2018-08-31T08:13:14.302Z,2.20
2018-08-31T08:14:14.201Z,2.10
2018-08-31T08:15:15.194Z,2.40
2018-08-31T08:16:14.113Z,3.00
2018-08-31T08:17:13.994Z,2.50
2018-08-31T08:18:13.897Z,2.30
2018-08-31T08:19:13.820Z,2.40
2018-08-31T08:20:13.765Z,2.30
2018-08-31T08:21:13.682Z,2.80
2018-08-31T08:22:13.590Z,2.70
2018-08-31T08:23:13.546Z,2.60
2018-08-31T08:24:13.424Z,2.40
2018-08-31T08:25:14.371Z,2.30
2018-08-31T08:26:13.363Z,2.70
2018-08-31T08:27:13.199Z,2.60
2018-08-31T08:28:13.158Z,2.60
2018-08-31T08:30:55.030Z,2.30
2018-08-31T08:33:36.998Z,2.40
2018-08-31T08:34:36.952Z,2.20
2018-08-31T08:35:36.874Z,2.80
2018-08-31T08:38:19.022Z,2.50
2018-08-31T08:39:18.932Z,2.80
2018-08-31T08:40:18.898Z,2.50
2018-08-31T08:41:18.790Z,2.10
2018-08-31T08:42:18.751Z,2.40
2018-08-31T08:43:18.630Z,2.70
2018-08-31T08:44:18.555Z,2.70
2018-08-31T08:45:18.492Z,2.30
2018-08-31T08:46:18.390Z,2.40
2018-08-31T08:49:00.540Z,2.70
2018-08-31T08:51:42.549Z,2.40
2018-08-31T08:52:42.453Z,2.20
2018-08-31T08:53:42.380Z,2.30
2018-08-31T08:54:42.299Z,2.30
2018-08-31T08:55:42.257Z,2.50
2018-08-31T08:58:24.563Z,2.40
2018-08-31T09:01:06.539Z,2.30
2018-08-31T09:02:06.453Z,2.40
2018-08-31T09:03:06.365Z,2.50
2018-08-31T09:05:48.619Z,2.40
2018-08-31T09:06:48.454Z,1.90
2018-08-31T09:07:48.371Z,2.30
2018-08-31T09:08:48.326Z,2.80
2018-08-31T09:09:48.222Z,2.20
2018-08-31T09:10:49.162Z,2.20
2018-08-31T09:11:48.131Z,2.00
2018-08-31T09:12:48.000Z,2.70
2018-08-31T09:13:47.922Z,2.10
2018-08-31T09:16:30.054Z,2.30
2018-08-31T09:17:29.953Z,2.00
2018-08-31T09:18:29.895Z,2.50
2018-08-31T09:19:29.800Z,1.90
2018-08-31T09:20:29.739Z,2.30
2018-08-31T09:21:29.679Z,2.20
2018-08-31T09:22:29.578Z,1.90
2018-08-31T09:25:11.577Z,2.10
2018-08-31T09:27:53.561Z,2.40
2018-08-31T09:28:53.456Z,2.20
2018-08-31T09:29:53.380Z,2.80
2018-08-31T09:32:35.566Z,2.50
2018-08-31T09:35:17.538Z,2.20
2018-08-31T09:37:59.551Z,2.10
2018-08-31T09:38:59.468Z,1.90
2018-08-31T09:39:59.387Z,2.40
2018-08-31T09:40:59.311Z,1.90
2018-08-31T09:41:59.237Z,2.20
2018-08-31T09:43:00.190Z,2.40
2018-08-31T09:43:59.177Z,1.90
2018-08-31T09:44:59.039Z,2.00
2018-08-31T09:45:58.975Z,2.20
2018-08-31T09:46:58.883Z,2.30
2018-08-31T09:47:58.843Z,2.30
2018-08-31T09:50:41.040Z,2.10
2018-08-31T09:53:23.070Z,2.20
2018-08-31T09:56:05.057Z,2.20
2018-08-31T09:57:05.003Z,2.60
2018-08-31T09:58:04.924Z,2.30
2018-08-31T09:59:04.893Z,2.20
2018-08-31T10:00:04.759Z,2.30
2018-08-31T10:01:04.692Z,2.30
2018-08-31T10:02:04.625Z,2.00
2018-08-31T10:03:04.548Z,2.20
2018-08-31T10:04:04.529Z,1.70
2018-08-31T10:05:04.443Z,2.00
2018-08-31T10:06:04.373Z,2.20
2018-08-31T10:07:04.272Z,1.80
2018-08-31T10:08:04.270Z,1.90
2018-08-31T10:09:04.172Z,2.30
2018-08-31T10:10:04.086Z,2.30
2018-08-31T10:12:46.043Z,2.10
2018-08-31T10:13:45.976Z,1.80
2018-08-31T10:14:45.954Z,2.00
2018-08-31T10:15:45.841Z,2.10
2018-08-31T10:16:45.763Z,2.00
2018-08-31T10:17:45.707Z,1.70
2018-08-31T10:18:45.757Z,2.30
2018-08-31T10:21:27.596Z,2.20
2018-08-31T10:22:27.482Z,2.10
2018-08-31T10:23:27.411Z,2.50
2018-08-31T10:24:28.496Z,1.90
2018-08-31T10:25:27.271Z,2.40
2018-08-31T10:26:27.242Z,2.40
2018-08-31T10:27:27.293Z,2.20
2018-08-31T10:28:27.071Z,2.80
2018-08-31T10:29:27.020Z,2.20
2018-08-31T10:30:26.957Z,2.40
2018-08-31T10:31:26.866Z,1.90
2018-08-31T10:32:26.796Z,2.50
2018-08-31T10:33:26.717Z,2.20
2018-08-31T10:34:26.664Z,2.10
2018-08-31T10:35:26.603Z,1.90
2018-08-31T10:36:26.510Z,1.90
2018-08-31T10:37:26.444Z,2.00
2018-08-31T10:38:26.357Z,2.10
2018-08-31T10:39:26.366Z,2.20
2018-08-31T10:40:26.235Z,1.80
2018-08-31T10:41:26.149Z,2.30
2018-08-31T10:42:26.074Z,2.10
2018-08-31T10:43:26.016Z,1.90
2018-08-31T10:46:08.087Z,2.30
2018-08-31T10:47:08.002Z,2.20
2018-08-31T10:48:07.936Z,2.20
2018-08-31T10:49:07.837Z,1.80
2018-08-31T10:50:07.816Z,2.10
2018-08-31T10:52:50.123Z,1.90
2018-08-31T10:53:49.993Z,2.00
2018-08-31T10:54:49.915Z,2.20
2018-08-31T10:55:49.985Z,2.10
2018-08-31T10:56:49.775Z,1.60
2018-08-31T10:57:49.701Z,2.30
2018-08-31T10:58:49.704Z,2.00
2018-08-31T10:59:49.557Z,2.00
2018-08-31T11:00:49.494Z,1.70
2018-08-31T11:03:31.603Z,1.80
2018-08-31T11:06:13.600Z,2.00
2018-08-31T11:07:13.502Z,2.10
2018-08-31T11:08:13.419Z,2.00
2018-08-31T11:10:55.599Z,1.90
2018-08-31T11:11:55.618Z,2.30
2018-08-31T11:12:55.434Z,2.40
2018-08-31T11:13:55.383Z,2.20
2018-08-31T11:14:55.280Z,2.10
2018-08-31T11:15:55.284Z,2.00
2018-08-31T11:16:55.148Z,2.00
2018-08-31T11:17:55.101Z,2.00
2018-08-31T11:18:55.017Z,2.70
2018-08-31T11:21:37.139Z,2.60
2018-08-31T11:22:37.008Z,2.80
2018-08-31T11:23:36.930Z,2.50
2018-08-31T11:24:36.894Z,3.00
2018-08-31T11:25:36.818Z,3.30
2018-08-31T11:26:36.770Z,2.90
2018-08-31T11:27:36.711Z,2.80
2018-08-31T11:28:36.584Z,2.80
2018-08-31T11:29:36.508Z,2.60
2018-08-31T11:30:36.448Z,2.80
2018-08-31T11:31:36.371Z,2.70
2018-08-31T11:32:37.315Z,3.10
2018-08-31T11:33:36.237Z,3.00
2018-08-31T11:34:36.168Z,3.30
2018-08-31T11:35:36.089Z,2.80
2018-08-31T11:36:36.045Z,2.70
2018-08-31T11:37:35.965Z,2.50
2018-08-31T11:38:35.874Z,2.20
2018-08-31T11:39:35.801Z,2.60
2018-08-31T11:40:35.743Z,2.80
2018-08-31T11:41:35.674Z,2.20
2018-08-31T11:42:35.635Z,3.10
2018-08-31T11:43:35.525Z,2.70
2018-08-31T11:44:35.456Z,2.60
2018-08-31T11:45:35.390Z,2.70
2018-08-31T11:46:35.313Z,2.80
2018-08-31T11:47:35.377Z,2.70
2018-08-31T11:48:35.198Z,2.40
2018-08-31T11:49:35.135Z,2.30
2018-08-31T11:50:35.035Z,2.40
2018-08-31T11:51:34.980Z,2.60
2018-08-31T11:52:35.910Z,2.40
2018-08-31T11:53:34.957Z,2.30
2018-08-31T11:54:34.765Z,2.30
2018-08-31T11:55:34.689Z,2.60
2018-08-31T11:56:34.671Z,2.60
2018-08-31T11:57:34.581Z,2.30
2018-08-31T11:58:34.473Z,2.90
2018-08-31T11:59:34.400Z,2.90
2018-08-31T12:02:16.586Z,2.50
2018-08-31T12:03:16.576Z,2.20
2018-08-31T12:04:16.497Z,2.20
2018-08-31T12:05:16.407Z,2.50
2018-08-31T12:06:16.413Z,2.30
2018-08-31T12:08:58.619Z,2.30
2018-08-31T12:09:58.539Z,2.30
2018-08-31T12:10:58.447Z,2.10
2018-08-31T12:11:58.387Z,2.00
2018-08-31T12:12:58.308Z,2.20
2018-08-31T12:13:58.259Z,2.20
2018-08-31T12:14:58.158Z,1.80
2018-08-31T12:15:58.091Z,2.00
2018-08-31T12:16:57.992Z,2.30
2018-08-31T12:17:57.946Z,2.20
2018-08-31T12:18:57.882Z,2.00
2018-08-31T12:19:57.781Z,2.10
2018-08-31T12:20:57.699Z,2.20
2018-08-31T12:21:57.615Z,2.20
2018-08-31T12:22:57.552Z,2.80
2018-08-31T12:23:57.510Z,3.40
2018-08-31T12:24:57.432Z,3.30
2018-08-31T12:25:57.352Z,2.10
2018-08-31T12:26:57.244Z,2.80
2018-08-31T12:27:57.161Z,3.00
2018-08-31T12:28:57.086Z,2.50
2018-08-31T12:29:57.042Z,2.40
2018-08-31T12:30:56.943Z,2.10
2018-08-31T12:31:56.861Z,2.70
2018-08-31T12:32:56.777Z,3.00
2018-08-31T12:33:56.737Z,2.70
2018-08-31T12:34:56.632Z,2.40
2018-08-31T12:35:56.577Z,2.50
2018-08-31T12:36:56.480Z,2.40
2018-08-31T12:37:56.428Z,2.10
2018-08-31T12:38:56.344Z,2.00
2018-08-31T12:39:56.256Z,1.90
2018-08-31T12:40:56.213Z,1.80
2018-08-31T12:43:38.125Z,1.80
2018-08-31T12:44:38.082Z,1.90
2018-08-31T12:45:37.950Z,2.00
2018-08-31T12:46:37.894Z,2.10
2018-08-31T12:47:37.792Z,1.70
2018-08-31T12:50:20.128Z,1.90
2018-08-31T12:51:20.044Z,1.90
2018-08-31T12:52:19.968Z,2.60
2018-08-31T12:53:19.926Z,2.10
2018-08-31T12:54:19.807Z,1.60
2018-08-31T12:55:20.756Z,2.10
2018-08-31T12:56:19.679Z,1.90
2018-08-31T12:57:19.577Z,2.80
2018-08-31T12:58:19.505Z,5.50
2018-08-31T12:59:19.444Z,3.70
2018-08-31T13:00:19.458Z,4.40
2018-08-31T13:01:19.302Z,2.70
2018-08-31T13:02:19.205Z,2.10
2018-08-31T13:05:01.107Z,2.20
2018-08-31T13:06:01.064Z,1.90
2018-08-31T13:07:01.046Z,2.00
2018-08-31T13:08:00.888Z,1.90
2018-08-31T13:09:00.835Z,2.20
2018-08-31T13:10:00.754Z,2.10
2018-08-31T13:11:00.810Z,2.00
2018-08-31T13:12:00.583Z,1.70
2018-08-31T13:13:00.515Z,1.90
2018-08-31T13:14:00.485Z,1.90
2018-08-31T13:15:00.348Z,2.20
2018-08-31T13:16:00.352Z,1.50
2018-08-31T13:17:00.374Z,2.10
2018-08-31T13:18:00.123Z,1.50
2018-08-31T13:19:00.044Z,1.90
2018-08-31T13:21:42.125Z,1.90
2018-08-31T13:22:42.075Z,2.00
2018-08-31T13:23:42.014Z,1.70
2018-08-31T13:24:41.903Z,1.90
2018-08-31T13:25:41.810Z,1.90
2018-08-31T13:26:41.934Z,1.80
2018-08-31T13:27:41.701Z,2.00
2018-08-31T13:30:23.773Z,1.80
2018-08-31T13:31:23.573Z,1.80
2018-08-31T13:32:23.528Z,2.10
2018-08-31T13:33:23.418Z,2.00
2018-08-31T13:34:23.329Z,1.80
2018-08-31T13:35:23.243Z,1.90
2018-08-31T13:36:23.185Z,1.80
2018-08-31T13:37:23.132Z,2.00
2018-08-31T13:38:23.089Z,2.40
2018-08-31T13:41:05.133Z,2.10
2018-08-31T13:42:05.060Z,1.90
2018-08-31T13:43:05.145Z,2.20
2018-08-31T13:44:04.980Z,2.20
2018-08-31T13:45:04.818Z,2.30
2018-08-31T13:46:04.747Z,2.20
2018-08-31T13:47:04.660Z,2.20
2018-08-31T13:48:04.635Z,2.30
2018-08-31T13:49:04.533Z,2.30
2018-08-31T13:51:46.623Z,2.00
2018-08-31T13:52:46.671Z,2.50
2018-08-31T13:53:46.488Z,2.30
2018-08-31T13:54:46.403Z,2.30
2018-08-31T13:55:46.316Z,2.10
2018-08-31T13:56:46.257Z,1.90
2018-08-31T13:57:46.179Z,2.10
2018-08-31T13:58:46.124Z,2.10
2018-08-31T13:59:46.018Z,1.70
2018-08-31T14:02:28.181Z,2.00
2018-08-31T14:05:10.176Z,1.90
2018-08-31T14:06:10.062Z,2.10
2018-08-31T14:07:09.982Z,2.10
2018-08-31T14:08:10.982Z,2.20
2018-08-31T14:09:09.827Z,2.20
2018-08-31T14:10:09.752Z,1.80
2018-08-31T14:11:09.684Z,2.00
2018-08-31T14:12:09.616Z,1.70
2018-08-31T14:13:09.519Z,1.80
2018-08-31T14:14:09.467Z,1.90
2018-08-31T14:15:09.367Z,2.20
2018-08-31T14:16:09.288Z,2.20
2018-08-31T14:17:09.214Z,2.00
2018-08-31T14:18:09.142Z,2.10
2018-08-31T14:19:09.181Z,2.00
2018-08-31T14:21:51.151Z,2.10
2018-08-31T14:22:51.073Z,1.90
2018-08-31T14:23:50.979Z,2.40
2018-08-31T14:24:50.952Z,2.20
2018-08-31T14:25:50.927Z,1.90
2018-08-31T14:26:50.762Z,2.30
2018-08-31T14:27:50.673Z,1.90
2018-08-31T14:28:50.634Z,2.20
2018-08-31T14:29:50.645Z,2.00
2018-08-31T14:32:32.637Z,2.20
2018-08-31T14:33:32.575Z,2.30
2018-08-31T14:34:32.513Z,2.00
2018-08-31T14:35:32.585Z,1.90
2018-08-31T14:36:32.344Z,2.60
2018-08-31T14:37:32.266Z,2.00
2018-08-31T14:38:32.173Z,2.20
2018-08-31T14:39:32.120Z,1.90
2018-08-31T14:40:32.045Z,2.10
2018-08-31T14:41:32.054Z,2.10
2018-08-31T14:42:31.856Z,2.10
2018-08-31T14:43:31.792Z,1.90
2018-08-31T14:44:31.711Z,2.10
2018-08-31T14:45:31.680Z,2.20
2018-08-31T14:46:31.548Z,1.90
2018-08-31T14:47:31.485Z,2.20
2018-08-31T14:48:31.398Z,2.10
2018-08-31T14:49:31.432Z,2.60
2018-08-31T14:50:31.279Z,2.20
2018-08-31T14:53:13.161Z,2.90
2018-08-31T14:54:13.076Z,2.40
2018-08-31T14:55:13.007Z,1.90
2018-08-31T14:56:12.940Z,2.00
2018-08-31T14:57:12.838Z,2.00
2018-08-31T14:58:12.760Z,1.80
2018-08-31T14:59:12.682Z,2.00
2018-08-31T15:01:54.837Z,2.00
2018-08-31T15:02:54.582Z,1.90
2018-08-31T15:03:54.505Z,1.90
2018-08-31T15:04:54.438Z,2.20
2018-08-31T15:05:54.427Z,1.90
2018-08-31T15:06:54.309Z,1.80
2018-08-31T15:07:54.189Z,1.90
2018-08-31T15:08:54.117Z,1.90
2018-08-31T15:09:54.034Z,2.00
2018-08-31T15:10:53.973Z,2.90
2018-08-31T15:11:53.974Z,2.70
2018-08-31T15:12:53.841Z,2.20
2018-08-31T15:13:53.729Z,2.90
2018-08-31T15:14:53.755Z,2.70
2018-08-31T15:15:53.564Z,2.20
2018-08-31T15:16:54.504Z,2.40
2018-08-31T15:17:53.428Z,2.20
2018-08-31T15:18:53.339Z,2.70
2018-08-31T15:19:53.255Z,2.20
2018-08-31T15:20:53.212Z,2.60
2018-08-31T15:21:53.119Z,4.30
2018-08-31T15:22:53.037Z,3.80
2018-08-31T15:23:52.945Z,2.30
2018-08-31T15:24:52.873Z,2.10
2018-08-31T15:25:52.793Z,1.90
2018-08-31T15:26:53.750Z,1.70
2018-08-31T15:27:52.642Z,1.80
2018-08-31T15:28:52.570Z,2.20
2018-08-31T15:29:52.503Z,2.30
2018-08-31T15:30:52.407Z,2.50
2018-08-31T15:31:52.389Z,2.10
2018-08-31T15:34:34.169Z,2.00
2018-08-31T15:35:34.198Z,2.50
2018-08-31T15:36:34.023Z,2.20
2018-08-31T15:37:35.036Z,1.80
2018-08-31T15:38:34.009Z,1.90
2018-08-31T15:39:33.887Z,1.90
2018-08-31T15:40:33.701Z,1.90
2018-08-31T15:41:34.758Z,1.80
2018-08-31T15:42:33.643Z,1.90
2018-08-31T15:43:33.507Z,1.80
2018-08-31T15:44:33.404Z,2.00
2018-08-31T15:45:33.430Z,1.80
2018-08-31T15:46:33.240Z,1.90
2018-08-31T15:47:33.257Z,2.30
2018-08-31T15:48:33.096Z,2.00
2018-08-31T15:49:33.061Z,2.20
2018-08-31T15:50:32.982Z,1.80
2018-08-31T15:51:32.939Z,2.10
2018-08-31T15:52:32.815Z,2.00
2018-08-31T15:53:32.741Z,2.20
2018-08-31T15:54:32.608Z,2.10
2018-08-31T15:57:14.700Z,2.20
2018-08-31T15:58:14.656Z,2.30
2018-08-31T15:59:14.514Z,2.20
2018-08-31T16:00:14.600Z,1.90
2018-08-31T16:01:14.358Z,2.20